sensor_id;sensor_type;location;lat;lon;timestamp;P1;durP1;ratioP1;P2;durP2;ratioP2
75499;SDS011;64076;51.466;7.260;2023-05-10T00:01:20;6.17;;;4.80;;
75499;SDS011;64076;51.466;7.260;2023-05-10T00:03:46;6.93;;;5.05;;
75499;SDS011;64076;51.466;7.260;2023-05-10T00:06:11;6.03;;;4.70;;
75499;SDS011;64076;51.466;7.260;2023-05-10T00:08:37;6.47;;;5.43;;
75499;SDS011;64076;51.466;7.260;2023-05-10T00:11:02;6.03;;;4.60;;
75499;SDS011;64076;51.466;7.260;2023-05-10T00:13:28;6.57;;;5.07;;
75499;SDS011;64076;51.466;7.260;2023-05-10T00:15:54;6.30;;;5.13;;
75499;SDS011;64076;51.466;7.260;2023-05-10T00:18:19;7.20;;;5.17;;
75499;SDS011;64076;51.466;7.260;2023-05-10T00:20:45;6.00;;;4.73;;
75499;SDS011;64076;51.466;7.260;2023-05-10T00:23:11;5.63;;;4.40;;
75499;SDS011;64076;51.466;7.260;2023-05-10T00:25:37;6.07;;;5.03;;
75499;SDS011;64076;51.466;7.260;2023-05-10T00:28:02;5.90;;;4.43;;
75499;SDS011;64076;51.466;7.260;2023-05-10T00:30:28;5.67;;;4.37;;
75499;SDS011;64076;51.466;7.260;2023-05-10T00:32:53;5.28;;;4.50;;
75499;SDS011;64076;51.466;7.260;2023-05-10T00:35:19;5.70;;;4.50;;
75499;SDS011;64076;51.466;7.260;2023-05-10T00:37:44;6.07;;;4.28;;
75499;SDS011;64076;51.466;7.260;2023-05-10T00:40:10;5.33;;;4.20;;
75499;SDS011;64076;51.466;7.260;2023-05-10T00:42:36;5.57;;;4.38;;
75499;SDS011;64076;51.466;7.260;2023-05-10T00:45:02;5.50;;;4.20;;
75499;SDS011;64076;51.466;7.260;2023-05-10T00:47:27;5.85;;;4.60;;
75499;SDS011;64076;51.466;7.260;2023-05-10T00:49:53;5.90;;;4.80;;
75499;SDS011;64076;51.466;7.260;2023-05-10T00:52:20;5.90;;;4.20;;
75499;SDS011;64076;51.466;7.260;2023-05-10T00:54:48;5.93;;;4.28;;
75499;SDS011;64076;51.466;7.260;2023-05-10T00:57:14;5.65;;;4.30;;
75499;SDS011;64076;51.466;7.260;2023-05-10T00:59:39;5.07;;;4.07;;
75499;SDS011;64076;51.466;7.260;2023-05-10T01:02:06;5.78;;;4.82;;
75499;SDS011;64076;51.466;7.260;2023-05-10T01:04:31;6.30;;;4.30;;
75499;SDS011;64076;51.466;7.260;2023-05-10T01:06:58;7.63;;;4.70;;
75499;SDS011;64076;51.466;7.260;2023-05-10T01:09:24;5.40;;;3.97;;
75499;SDS011;64076;51.466;7.260;2023-05-10T01:11:51;5.38;;;4.07;;
75499;SDS011;64076;51.466;7.260;2023-05-10T01:14:18;5.70;;;4.50;;
75499;SDS011;64076;51.466;7.260;2023-05-10T01:16:44;5.97;;;4.65;;
75499;SDS011;64076;51.466;7.260;2023-05-10T01:19:28;4.53;;;4.03;;
75499;SDS011;64076;51.466;7.260;2023-05-10T01:28:04;5.27;;;4.27;;
75499;SDS011;64076;51.466;7.260;2023-05-10T01:36:03;4.45;;;3.80;;
75499;SDS011;64076;51.466;7.260;2023-05-10T01:39:24;4.78;;;3.90;;
75499;SDS011;64076;51.466;7.260;2023-05-10T01:47:11;4.80;;;4.18;;
75499;SDS011;64076;51.466;7.260;2023-05-10T01:49:39;5.53;;;4.13;;
75499;SDS011;64076;51.466;7.260;2023-05-10T01:52:12;5.30;;;4.38;;
75499;SDS011;64076;51.466;7.260;2023-05-10T01:54:41;5.27;;;4.00;;
75499;SDS011;64076;51.466;7.260;2023-05-10T01:57:14;5.88;;;4.20;;
75499;SDS011;64076;51.466;7.260;2023-05-10T01:59:42;6.13;;;4.32;;
75499;SDS011;64076;51.466;7.260;2023-05-10T02:02:10;5.10;;;4.22;;
75499;SDS011;64076;51.466;7.260;2023-05-10T02:04:41;4.78;;;3.75;;
75499;SDS011;64076;51.466;7.260;2023-05-10T02:07:08;4.50;;;3.43;;
75499;SDS011;64076;51.466;7.260;2023-05-10T02:09:35;5.00;;;3.90;;
75499;SDS011;64076;51.466;7.260;2023-05-10T02:12:02;5.05;;;3.85;;
75499;SDS011;64076;51.466;7.260;2023-05-10T02:14:30;5.53;;;4.10;;
75499;SDS011;64076;51.466;7.260;2023-05-10T02:16:58;5.18;;;4.30;;
75499;SDS011;64076;51.466;7.260;2023-05-10T02:19:26;4.90;;;4.20;;
75499;SDS011;64076;51.466;7.260;2023-05-10T02:21:53;5.30;;;3.85;;
75499;SDS011;64076;51.466;7.260;2023-05-10T02:24:21;5.25;;;4.07;;
75499;SDS011;64076;51.466;7.260;2023-05-10T02:26:48;5.00;;;4.00;;
75499;SDS011;64076;51.466;7.260;2023-05-10T02:29:16;4.50;;;3.85;;
75499;SDS011;64076;51.466;7.260;2023-05-10T02:31:43;4.80;;;4.00;;
75499;SDS011;64076;51.466;7.260;2023-05-10T02:34:10;4.93;;;4.25;;
75499;SDS011;64076;51.466;7.260;2023-05-10T02:36:38;4.85;;;3.90;;
75499;SDS011;64076;51.466;7.260;2023-05-10T02:39:05;5.05;;;4.00;;
75499;SDS011;64076;51.466;7.260;2023-05-10T02:41:34;5.43;;;4.50;;
75499;SDS011;64076;51.466;7.260;2023-05-10T02:44:01;4.93;;;3.90;;
75499;SDS011;64076;51.466;7.260;2023-05-10T02:46:29;5.40;;;4.05;;
75499;SDS011;64076;51.466;7.260;2023-05-10T02:48:55;5.10;;;3.97;;
75499;SDS011;64076;51.466;7.260;2023-05-10T02:51:20;4.83;;;3.93;;
75499;SDS011;64076;51.466;7.260;2023-05-10T02:53:53;4.95;;;4.22;;
75499;SDS011;64076;51.466;7.260;2023-05-10T02:56:23;5.28;;;4.38;;
75499;SDS011;64076;51.466;7.260;2023-05-10T02:58:53;5.47;;;3.85;;
75499;SDS011;64076;51.466;7.260;2023-05-10T03:01:19;5.70;;;4.50;;
75499;SDS011;64076;51.466;7.260;2023-05-10T03:03:45;5.43;;;4.40;;
75499;SDS011;64076;51.466;7.260;2023-05-10T03:06:11;5.40;;;4.10;;
75499;SDS011;64076;51.466;7.260;2023-05-10T03:08:36;4.95;;;4.07;;
75499;SDS011;64076;51.466;7.260;2023-05-10T03:16:52;4.82;;;3.78;;
75499;SDS011;64076;51.466;7.260;2023-05-10T03:19:32;5.22;;;3.83;;
75499;SDS011;64076;51.466;7.260;2023-05-10T03:22:18;4.97;;;4.17;;
75499;SDS011;64076;51.466;7.260;2023-05-10T03:24:50;4.97;;;3.92;;
75499;SDS011;64076;51.466;7.260;2023-05-10T03:27:22;4.53;;;3.88;;
75499;SDS011;64076;51.466;7.260;2023-05-10T03:29:48;5.60;;;3.97;;
75499;SDS011;64076;51.466;7.260;2023-05-10T03:32:16;4.93;;;4.13;;
75499;SDS011;64076;51.466;7.260;2023-05-10T03:34:41;5.03;;;4.00;;
75499;SDS011;64076;51.466;7.260;2023-05-10T03:37:10;5.03;;;4.15;;
75499;SDS011;64076;51.466;7.260;2023-05-10T03:39:36;5.50;;;4.17;;
75499;SDS011;64076;51.466;7.260;2023-05-10T03:42:01;4.95;;;3.60;;
75499;SDS011;64076;51.466;7.260;2023-05-10T03:44:27;4.83;;;3.83;;
75499;SDS011;64076;51.466;7.260;2023-05-10T03:46:53;5.72;;;4.40;;
75499;SDS011;64076;51.466;7.260;2023-05-10T03:49:18;5.50;;;4.30;;
75499;SDS011;64076;51.466;7.260;2023-05-10T03:51:44;5.13;;;4.23;;
75499;SDS011;64076;51.466;7.260;2023-05-10T03:54:09;5.68;;;4.03;;
75499;SDS011;64076;51.466;7.260;2023-05-10T03:56:35;5.17;;;4.23;;
75499;SDS011;64076;51.466;7.260;2023-05-10T03:59:00;4.83;;;3.90;;
75499;SDS011;64076;51.466;7.260;2023-05-10T04:01:26;5.45;;;4.05;;
75499;SDS011;64076;51.466;7.260;2023-05-10T04:03:52;5.77;;;4.03;;
75499;SDS011;64076;51.466;7.260;2023-05-10T04:06:17;6.03;;;4.80;;
75499;SDS011;64076;51.466;7.260;2023-05-10T04:08:43;5.07;;;4.07;;
75499;SDS011;64076;51.466;7.260;2023-05-10T04:11:09;6.27;;;4.53;;
75499;SDS011;64076;51.466;7.260;2023-05-10T04:13:35;5.50;;;4.43;;
75499;SDS011;64076;51.466;7.260;2023-05-10T04:16:01;5.15;;;4.30;;
75499;SDS011;64076;51.466;7.260;2023-05-10T04:18:27;4.93;;;4.07;;
75499;SDS011;64076;51.466;7.260;2023-05-10T04:20:53;5.68;;;4.20;;
75499;SDS011;64076;51.466;7.260;2023-05-10T04:23:18;5.77;;;4.37;;
75499;SDS011;64076;51.466;7.260;2023-05-10T04:25:44;6.47;;;4.10;;
75499;SDS011;64076;51.466;7.260;2023-05-10T04:28:09;5.93;;;4.37;;
75499;SDS011;64076;51.466;7.260;2023-05-10T04:30:35;5.27;;;4.43;;
75499;SDS011;64076;51.466;7.260;2023-05-10T04:33:00;6.20;;;4.65;;
75499;SDS011;64076;51.466;7.260;2023-05-10T04:35:26;6.07;;;4.67;;
75499;SDS011;64076;51.466;7.260;2023-05-10T04:37:53;5.68;;;4.60;;
75499;SDS011;64076;51.466;7.260;2023-05-10T04:40:19;5.18;;;3.85;;
75499;SDS011;64076;51.466;7.260;2023-05-10T04:42:44;6.10;;;4.93;;
75499;SDS011;64076;51.466;7.260;2023-05-10T04:45:10;5.83;;;5.00;;
75499;SDS011;64076;51.466;7.260;2023-05-10T04:47:36;5.40;;;4.03;;
75499;SDS011;64076;51.466;7.260;2023-05-10T04:50:03;6.18;;;4.63;;
75499;SDS011;64076;51.466;7.260;2023-05-10T04:52:29;6.40;;;5.13;;
75499;SDS011;64076;51.466;7.260;2023-05-10T04:54:54;8.00;;;4.60;;
75499;SDS011;64076;51.466;7.260;2023-05-10T04:57:20;6.17;;;4.90;;
75499;SDS011;64076;51.466;7.260;2023-05-10T04:59:46;6.65;;;4.75;;
75499;SDS011;64076;51.466;7.260;2023-05-10T05:02:11;5.73;;;4.97;;
75499;SDS011;64076;51.466;7.260;2023-05-10T05:04:37;6.25;;;5.15;;
75499;SDS011;64076;51.466;7.260;2023-05-10T05:07:02;5.73;;;4.67;;
75499;SDS011;64076;51.466;7.260;2023-05-10T05:09:28;5.83;;;4.93;;
75499;SDS011;64076;51.466;7.260;2023-05-10T05:11:53;5.90;;;4.80;;
75499;SDS011;64076;51.466;7.260;2023-05-10T05:14:19;6.85;;;5.60;;
75499;SDS011;64076;51.466;7.260;2023-05-10T05:16:45;6.43;;;5.28;;
75499;SDS011;64076;51.466;7.260;2023-05-10T05:19:11;6.83;;;5.20;;
75499;SDS011;64076;51.466;7.260;2023-05-10T05:21:37;6.37;;;5.20;;
75499;SDS011;64076;51.466;7.260;2023-05-10T05:24:03;6.72;;;4.95;;
75499;SDS011;64076;51.466;7.260;2023-05-10T05:26:29;5.68;;;4.78;;
75499;SDS011;64076;51.466;7.260;2023-05-10T05:28:54;6.23;;;4.70;;
75499;SDS011;64076;51.466;7.260;2023-05-10T05:31:20;5.27;;;4.70;;
75499;SDS011;64076;51.466;7.260;2023-05-10T05:33:45;5.77;;;5.13;;
75499;SDS011;64076;51.466;7.260;2023-05-10T05:36:11;6.18;;;5.00;;
75499;SDS011;64076;51.466;7.260;2023-05-10T05:38:37;5.57;;;4.30;;
75499;SDS011;64076;51.466;7.260;2023-05-10T05:41:02;5.53;;;4.30;;
75499;SDS011;64076;51.466;7.260;2023-05-10T05:43:28;5.13;;;4.28;;
75499;SDS011;64076;51.466;7.260;2023-05-10T05:45:53;5.40;;;4.40;;
75499;SDS011;64076;51.466;7.260;2023-05-10T05:48:19;5.60;;;4.45;;
75499;SDS011;64076;51.466;7.260;2023-05-10T05:50:45;5.67;;;4.60;;
75499;SDS011;64076;51.466;7.260;2023-05-10T05:53:12;5.03;;;4.15;;
75499;SDS011;64076;51.466;7.260;2023-05-10T05:55:37;5.20;;;4.38;;
75499;SDS011;64076;51.466;7.260;2023-05-10T05:58:03;5.90;;;4.70;;
75499;SDS011;64076;51.466;7.260;2023-05-10T06:00:28;5.20;;;4.43;;
75499;SDS011;64076;51.466;7.260;2023-05-10T06:02:54;5.27;;;4.40;;
75499;SDS011;64076;51.466;7.260;2023-05-10T06:05:19;4.83;;;4.30;;
75499;SDS011;64076;51.466;7.260;2023-05-10T06:07:45;5.57;;;4.50;;
75499;SDS011;64076;51.466;7.260;2023-05-10T06:10:11;4.70;;;4.03;;
75499;SDS011;64076;51.466;7.260;2023-05-10T06:12:37;4.87;;;4.37;;
75499;SDS011;64076;51.466;7.260;2023-05-10T06:15:03;5.13;;;4.33;;
75499;SDS011;64076;51.466;7.260;2023-05-10T06:17:28;5.65;;;4.45;;
75499;SDS011;64076;51.466;7.260;2023-05-10T06:19:55;8.00;;;4.35;;
75499;SDS011;64076;51.466;7.260;2023-05-10T06:22:20;5.32;;;4.15;;
75499;SDS011;64076;51.466;7.260;2023-05-10T06:24:47;4.60;;;3.97;;
75499;SDS011;64076;51.466;7.260;2023-05-10T06:27:13;5.45;;;4.35;;
75499;SDS011;64076;51.466;7.260;2023-05-10T06:29:39;6.50;;;4.97;;
75499;SDS011;64076;51.466;7.260;2023-05-10T06:32:04;7.40;;;5.40;;
75499;SDS011;64076;51.466;7.260;2023-05-10T06:34:30;6.13;;;5.30;;
75499;SDS011;64076;51.466;7.260;2023-05-10T06:36:56;6.55;;;5.28;;
75499;SDS011;64076;51.466;7.260;2023-05-10T06:39:22;6.20;;;5.57;;
75499;SDS011;64076;51.466;7.260;2023-05-10T06:41:50;6.03;;;5.23;;
75499;SDS011;64076;51.466;7.260;2023-05-10T06:44:16;5.72;;;4.88;;
75499;SDS011;64076;51.466;7.260;2023-05-10T06:46:41;6.03;;;5.10;;
75499;SDS011;64076;51.466;7.260;2023-05-10T06:49:07;5.60;;;4.90;;
75499;SDS011;64076;51.466;7.260;2023-05-10T06:51:33;11.50;;;8.90;;
75499;SDS011;64076;51.466;7.260;2023-05-10T06:53:58;9.95;;;7.57;;
75499;SDS011;64076;51.466;7.260;2023-05-10T06:56:25;13.70;;;9.33;;
75499;SDS011;64076;51.466;7.260;2023-05-10T06:58:50;10.82;;;7.75;;
75499;SDS011;64076;51.466;7.260;2023-05-10T07:01:16;12.47;;;9.10;;
75499;SDS011;64076;51.466;7.260;2023-05-10T07:03:42;11.93;;;9.18;;
75499;SDS011;64076;51.466;7.260;2023-05-10T07:06:07;11.87;;;9.43;;
75499;SDS011;64076;51.466;7.260;2023-05-10T07:08:33;10.07;;;7.87;;
75499;SDS011;64076;51.466;7.260;2023-05-10T07:11:02;11.20;;;7.93;;
75499;SDS011;64076;51.466;7.260;2023-05-10T07:13:32;9.73;;;7.28;;
75499;SDS011;64076;51.466;7.260;2023-05-10T07:15:59;9.77;;;7.68;;
75499;SDS011;64076;51.466;7.260;2023-05-10T07:18:25;11.35;;;8.65;;
75499;SDS011;64076;51.466;7.260;2023-05-10T07:20:51;12.07;;;9.50;;
75499;SDS011;64076;51.466;7.260;2023-05-10T07:23:17;10.50;;;8.75;;
75499;SDS011;64076;51.466;7.260;2023-05-10T07:25:44;11.30;;;9.50;;
75499;SDS011;64076;51.466;7.260;2023-05-10T07:28:13;10.10;;;8.23;;
75499;SDS011;64076;51.466;7.260;2023-05-10T07:30:40;9.77;;;8.27;;
75499;SDS011;64076;51.466;7.260;2023-05-10T07:33:06;9.15;;;7.50;;
75499;SDS011;64076;51.466;7.260;2023-05-10T07:35:34;10.73;;;8.13;;
75499;SDS011;64076;51.466;7.260;2023-05-10T07:37:59;12.13;;;7.67;;
75499;SDS011;64076;51.466;7.260;2023-05-10T07:40:25;9.75;;;6.97;;
75499;SDS011;64076;51.466;7.260;2023-05-10T07:42:50;10.43;;;7.90;;
75499;SDS011;64076;51.466;7.260;2023-05-10T07:45:17;11.68;;;8.05;;
75499;SDS011;64076;51.466;7.260;2023-05-10T07:47:43;10.10;;;7.35;;
75499;SDS011;64076;51.466;7.260;2023-05-10T07:50:08;10.20;;;8.07;;
75499;SDS011;64076;51.466;7.260;2023-05-10T07:52:34;11.20;;;7.63;;
75499;SDS011;64076;51.466;7.260;2023-05-10T07:55:00;11.30;;;7.97;;
75499;SDS011;64076;51.466;7.260;2023-05-10T07:57:25;12.35;;;8.15;;
75499;SDS011;64076;51.466;7.260;2023-05-10T07:59:51;10.57;;;8.10;;
75499;SDS011;64076;51.466;7.260;2023-05-10T08:02:16;11.20;;;8.20;;
75499;SDS011;64076;51.466;7.260;2023-05-10T08:04:42;9.75;;;7.53;;
75499;SDS011;64076;51.466;7.260;2023-05-10T08:07:07;9.93;;;7.27;;
75499;SDS011;64076;51.466;7.260;2023-05-10T08:09:33;9.57;;;7.40;;
75499;SDS011;64076;51.466;7.260;2023-05-10T08:11:59;11.73;;;7.80;;
75499;SDS011;64076;51.466;7.260;2023-05-10T08:14:25;11.27;;;7.90;;
75499;SDS011;64076;51.466;7.260;2023-05-10T08:16:52;14.23;;;9.75;;
75499;SDS011;64076;51.466;7.260;2023-05-10T08:19:17;13.20;;;7.97;;
75499;SDS011;64076;51.466;7.260;2023-05-10T08:21:44;10.75;;;7.82;;
75499;SDS011;64076;51.466;7.260;2023-05-10T08:24:10;12.52;;;7.97;;
75499;SDS011;64076;51.466;7.260;2023-05-10T08:26:36;12.60;;;8.50;;
75499;SDS011;64076;51.466;7.260;2023-05-10T08:29:01;15.00;;;8.52;;
75499;SDS011;64076;51.466;7.260;2023-05-10T08:31:27;13.50;;;7.63;;
75499;SDS011;64076;51.466;7.260;2023-05-10T08:33:52;10.87;;;6.87;;
75499;SDS011;64076;51.466;7.260;2023-05-10T08:36:18;12.27;;;6.95;;
75499;SDS011;64076;51.466;7.260;2023-05-10T08:38:53;13.85;;;7.32;;
75499;SDS011;64076;51.466;7.260;2023-05-10T08:41:19;13.03;;;7.43;;
75499;SDS011;64076;51.466;7.260;2023-05-10T08:43:46;11.10;;;7.57;;
75499;SDS011;64076;51.466;7.260;2023-05-10T08:46:16;14.20;;;6.95;;
75499;SDS011;64076;51.466;7.260;2023-05-10T08:48:43;11.13;;;7.63;;
75499;SDS011;64076;51.466;7.260;2023-05-10T08:51:11;10.93;;;8.02;;
75499;SDS011;64076;51.466;7.260;2023-05-10T08:53:39;11.80;;;7.57;;
75499;SDS011;64076;51.466;7.260;2023-05-10T08:56:05;15.57;;;7.68;;
75499;SDS011;64076;51.466;7.260;2023-05-10T08:58:31;11.77;;;7.78;;
75499;SDS011;64076;51.466;7.260;2023-05-10T09:00:57;11.53;;;7.33;;
75499;SDS011;64076;51.466;7.260;2023-05-10T09:03:24;9.73;;;6.88;;
75499;SDS011;64076;51.466;7.260;2023-05-10T09:05:49;12.10;;;7.68;;
75499;SDS011;64076;51.466;7.260;2023-05-10T09:08:15;11.80;;;7.23;;
75499;SDS011;64076;51.466;7.260;2023-05-10T09:10:42;11.10;;;6.82;;
75499;SDS011;64076;51.466;7.260;2023-05-10T09:13:09;11.52;;;6.20;;
75499;SDS011;64076;51.466;7.260;2023-05-10T09:15:36;9.53;;;6.27;;
75499;SDS011;64076;51.466;7.260;2023-05-10T09:18:02;9.50;;;5.88;;
75499;SDS011;64076;51.466;7.260;2023-05-10T09:20:28;7.80;;;5.57;;
75499;SDS011;64076;51.466;7.260;2023-05-10T09:22:54;7.00;;;5.17;;
75499;SDS011;64076;51.466;7.260;2023-05-10T09:25:20;8.23;;;4.88;;
75499;SDS011;64076;51.466;7.260;2023-05-10T09:27:46;8.53;;;5.13;;
75499;SDS011;64076;51.466;7.260;2023-05-10T09:30:16;6.85;;;4.78;;
75499;SDS011;64076;51.466;7.260;2023-05-10T09:32:47;10.10;;;5.10;;
75499;SDS011;64076;51.466;7.260;2023-05-10T09:35:16;10.43;;;7.10;;
75499;SDS011;64076;51.466;7.260;2023-05-10T09:37:43;6.78;;;4.90;;
75499;SDS011;64076;51.466;7.260;2023-05-10T09:40:11;8.18;;;4.82;;
75499;SDS011;64076;51.466;7.260;2023-05-10T09:42:40;8.27;;;5.15;;
75499;SDS011;64076;51.466;7.260;2023-05-10T09:45:19;7.20;;;4.75;;
75499;SDS011;64076;51.466;7.260;2023-05-10T09:47:46;7.07;;;4.60;;
75499;SDS011;64076;51.466;7.260;2023-05-10T09:50:11;6.82;;;4.95;;
75499;SDS011;64076;51.466;7.260;2023-05-10T09:52:59;8.57;;;5.17;;
75499;SDS011;64076;51.466;7.260;2023-05-10T09:55:41;7.20;;;4.55;;
75499;SDS011;64076;51.466;7.260;2023-05-10T09:58:09;6.05;;;4.30;;
75499;SDS011;64076;51.466;7.260;2023-05-10T10:00:36;7.03;;;4.47;;
75499;SDS011;64076;51.466;7.260;2023-05-10T10:03:03;6.33;;;4.63;;
75499;SDS011;64076;51.466;7.260;2023-05-10T10:05:33;8.65;;;4.80;;
75499;SDS011;64076;51.466;7.260;2023-05-10T10:08:00;6.00;;;4.30;;
75499;SDS011;64076;51.466;7.260;2023-05-10T10:10:28;6.05;;;4.03;;
75499;SDS011;64076;51.466;7.260;2023-05-10T10:12:54;6.20;;;4.13;;
75499;SDS011;64076;51.466;7.260;2023-05-10T10:15:20;7.90;;;4.40;;
75499;SDS011;64076;51.466;7.260;2023-05-10T10:17:48;5.93;;;4.13;;
75499;SDS011;64076;51.466;7.260;2023-05-10T10:20:14;6.97;;;4.03;;
75499;SDS011;64076;51.466;7.260;2023-05-10T10:22:40;5.70;;;3.88;;
75499;SDS011;64076;51.466;7.260;2023-05-10T10:25:07;9.93;;;4.70;;
75499;SDS011;64076;51.466;7.260;2023-05-10T10:30:27;17.98;;;5.15;;
75499;SDS011;64076;51.466;7.260;2023-05-10T10:35:39;11.20;;;5.47;;
75499;SDS011;64076;51.466;7.260;2023-05-10T10:38:05;6.18;;;4.45;;
75499;SDS011;64076;51.466;7.260;2023-05-10T10:40:33;6.95;;;4.40;;
75499;SDS011;64076;51.466;7.260;2023-05-10T10:46:12;7.47;;;4.88;;
75499;SDS011;64076;51.466;7.260;2023-05-10T10:48:39;8.30;;;4.97;;
75499;SDS011;64076;51.466;7.260;2023-05-10T10:51:06;8.20;;;4.50;;
75499;SDS011;64076;51.466;7.260;2023-05-10T10:53:32;8.90;;;5.07;;
75499;SDS011;64076;51.466;7.260;2023-05-10T10:56:10;7.90;;;4.60;;
75499;SDS011;64076;51.466;7.260;2023-05-10T10:58:40;6.15;;;4.53;;
75499;SDS011;64076;51.466;7.260;2023-05-10T11:01:17;5.57;;;4.20;;
75499;SDS011;64076;51.466;7.260;2023-05-10T11:06:34;5.63;;;4.13;;
75499;SDS011;64076;51.466;7.260;2023-05-10T11:09:10;7.05;;;3.80;;
75499;SDS011;64076;51.466;7.260;2023-05-10T11:11:48;6.25;;;4.35;;
75499;SDS011;64076;51.466;7.260;2023-05-10T11:14:18;8.45;;;4.47;;
75499;SDS011;64076;51.466;7.260;2023-05-10T11:16:46;6.47;;;4.10;;
75499;SDS011;64076;51.466;7.260;2023-05-10T11:19:12;6.37;;;4.53;;
75499;SDS011;64076;51.466;7.260;2023-05-10T11:21:49;6.10;;;4.53;;
75499;SDS011;64076;51.466;7.260;2023-05-10T11:24:20;11.60;;;6.40;;
75499;SDS011;64076;51.466;7.260;2023-05-10T11:26:49;10.15;;;6.57;;
75499;SDS011;64076;51.466;7.260;2023-05-10T11:29:16;12.30;;;6.43;;
75499;SDS011;64076;51.466;7.260;2023-05-10T11:31:45;7.93;;;5.43;;
75499;SDS011;64076;51.466;7.260;2023-05-10T11:34:12;6.93;;;5.13;;
75499;SDS011;64076;51.466;7.260;2023-05-10T11:36:55;6.93;;;4.93;;
75499;SDS011;64076;51.466;7.260;2023-05-10T11:39:21;8.25;;;5.47;;
75499;SDS011;64076;51.466;7.260;2023-05-10T11:41:54;7.18;;;5.18;;
75499;SDS011;64076;51.466;7.260;2023-05-10T11:44:20;7.27;;;5.13;;
75499;SDS011;64076;51.466;7.260;2023-05-10T11:46:46;6.07;;;4.65;;
75499;SDS011;64076;51.466;7.260;2023-05-10T11:49:11;6.53;;;4.60;;
75499;SDS011;64076;51.466;7.260;2023-05-10T11:51:38;8.18;;;4.90;;
75499;SDS011;64076;51.466;7.260;2023-05-10T11:54:08;5.35;;;3.95;;
75499;SDS011;64076;51.466;7.260;2023-05-10T11:56:36;6.30;;;3.92;;
75499;SDS011;64076;51.466;7.260;2023-05-10T11:59:05;11.23;;;4.50;;
75499;SDS011;64076;51.466;7.260;2023-05-10T12:01:30;6.82;;;4.13;;
75499;SDS011;64076;51.466;7.260;2023-05-10T12:03:57;7.05;;;4.03;;
75499;SDS011;64076;51.466;7.260;2023-05-10T12:06:26;7.97;;;3.63;;
75499;SDS011;64076;51.466;7.260;2023-05-10T12:08:53;5.43;;;3.90;;
75499;SDS011;64076;51.466;7.260;2023-05-10T12:11:19;7.53;;;4.00;;
75499;SDS011;64076;51.466;7.260;2023-05-10T12:13:49;9.13;;;4.32;;
75499;SDS011;64076;51.466;7.260;2023-05-10T12:16:27;5.30;;;3.75;;
75499;SDS011;64076;51.466;7.260;2023-05-10T12:19:00;9.00;;;3.97;;
75499;SDS011;64076;51.466;7.260;2023-05-10T12:21:26;5.45;;;3.65;;
75499;SDS011;64076;51.466;7.260;2023-05-10T12:23:54;10.13;;;5.57;;
75499;SDS011;64076;51.466;7.260;2023-05-10T12:26:24;9.32;;;5.35;;
75499;SDS011;64076;51.466;7.260;2023-05-10T12:28:51;6.85;;;4.07;;
75499;SDS011;64076;51.466;7.260;2023-05-10T12:31:18;7.60;;;4.43;;
75499;SDS011;64076;51.466;7.260;2023-05-10T12:33:43;7.20;;;5.57;;
75499;SDS011;64076;51.466;7.260;2023-05-10T12:36:12;8.52;;;5.38;;
75499;SDS011;64076;51.466;7.260;2023-05-10T12:38:39;8.80;;;5.27;;
75499;SDS011;64076;51.466;7.260;2023-05-10T12:41:11;11.05;;;7.88;;
75499;SDS011;64076;51.466;7.260;2023-05-10T12:43:38;5.82;;;4.63;;
75499;SDS011;64076;51.466;7.260;2023-05-10T12:46:08;8.45;;;5.20;;
75499;SDS011;64076;51.466;7.260;2023-05-10T12:48:41;7.38;;;4.78;;
75499;SDS011;64076;51.466;7.260;2023-05-10T12:51:08;8.50;;;5.07;;
75499;SDS011;64076;51.466;7.260;2023-05-10T12:53:37;7.28;;;5.10;;
75499;SDS011;64076;51.466;7.260;2023-05-10T12:56:03;4.82;;;4.00;;
75499;SDS011;64076;51.466;7.260;2023-05-10T12:58:29;6.38;;;3.97;;
75499;SDS011;64076;51.466;7.260;2023-05-10T13:00:54;5.23;;;3.70;;
75499;SDS011;64076;51.466;7.260;2023-05-10T13:03:21;4.88;;;3.45;;
75499;SDS011;64076;51.466;7.260;2023-05-10T13:05:47;6.10;;;3.10;;
75499;SDS011;64076;51.466;7.260;2023-05-10T13:08:15;4.43;;;3.08;;
75499;SDS011;64076;51.466;7.260;2023-05-10T13:10:40;5.43;;;3.65;;
75499;SDS011;64076;51.466;7.260;2023-05-10T13:13:06;4.17;;;3.47;;
75499;SDS011;64076;51.466;7.260;2023-05-10T13:15:32;6.20;;;3.45;;
75499;SDS011;64076;51.466;7.260;2023-05-10T13:17:58;4.47;;;3.10;;
75499;SDS011;64076;51.466;7.260;2023-05-10T13:20:24;4.00;;;3.00;;
75499;SDS011;64076;51.466;7.260;2023-05-10T13:22:50;7.43;;;3.20;;
75499;SDS011;64076;51.466;7.260;2023-05-10T13:25:15;3.95;;;2.88;;
75499;SDS011;64076;51.466;7.260;2023-05-10T13:27:41;3.28;;;2.72;;
75499;SDS011;64076;51.466;7.260;2023-05-10T13:30:08;4.17;;;2.70;;
75499;SDS011;64076;51.466;7.260;2023-05-10T13:32:34;4.78;;;3.00;;
75499;SDS011;64076;51.466;7.260;2023-05-10T13:35:00;3.92;;;2.60;;
75499;SDS011;64076;51.466;7.260;2023-05-10T13:37:26;2.87;;;2.20;;
75499;SDS011;64076;51.466;7.260;2023-05-10T13:39:51;3.20;;;2.50;;
75499;SDS011;64076;51.466;7.260;2023-05-10T13:42:17;3.53;;;2.60;;
75499;SDS011;64076;51.466;7.260;2023-05-10T13:44:43;3.30;;;2.38;;
75499;SDS011;64076;51.466;7.260;2023-05-10T13:47:08;2.90;;;2.60;;
75499;SDS011;64076;51.466;7.260;2023-05-10T13:49:35;2.60;;;2.17;;
75499;SDS011;64076;51.466;7.260;2023-05-10T13:52:00;3.33;;;2.60;;
75499;SDS011;64076;51.466;7.260;2023-05-10T13:54:31;3.83;;;2.30;;
75499;SDS011;64076;51.466;7.260;2023-05-10T13:57:01;3.30;;;2.40;;
75499;SDS011;64076;51.466;7.260;2023-05-10T13:59:26;3.20;;;2.53;;
75499;SDS011;64076;51.466;7.260;2023-05-10T14:01:53;3.22;;;2.10;;
75499;SDS011;64076;51.466;7.260;2023-05-10T14:04:19;3.13;;;2.43;;
75499;SDS011;64076;51.466;7.260;2023-05-10T14:06:45;3.47;;;2.20;;
75499;SDS011;64076;51.466;7.260;2023-05-10T14:09:10;2.37;;;2.03;;
75499;SDS011;64076;51.466;7.260;2023-05-10T14:11:36;2.40;;;2.10;;
75499;SDS011;64076;51.466;7.260;2023-05-10T14:14:01;2.50;;;2.03;;
75499;SDS011;64076;51.466;7.260;2023-05-10T14:16:27;3.00;;;2.10;;
75499;SDS011;64076;51.466;7.260;2023-05-10T14:18:53;2.53;;;1.92;;
75499;SDS011;64076;51.466;7.260;2023-05-10T14:21:18;2.40;;;2.10;;
75499;SDS011;64076;51.466;7.260;2023-05-10T14:23:44;2.78;;;2.15;;
75499;SDS011;64076;51.466;7.260;2023-05-10T14:26:10;2.87;;;2.00;;
75499;SDS011;64076;51.466;7.260;2023-05-10T14:28:35;2.90;;;1.80;;
75499;SDS011;64076;51.466;7.260;2023-05-10T14:31:01;2.60;;;1.80;;
75499;SDS011;64076;51.466;7.260;2023-05-10T14:33:27;2.28;;;1.77;;
75499;SDS011;64076;51.466;7.260;2023-05-10T14:35:53;2.30;;;1.80;;
75499;SDS011;64076;51.466;7.260;2023-05-10T14:38:22;2.35;;;1.70;;
75499;SDS011;64076;51.466;7.260;2023-05-10T14:40:50;2.53;;;1.90;;
75499;SDS011;64076;51.466;7.260;2023-05-10T14:43:15;3.33;;;2.00;;
75499;SDS011;64076;51.466;7.260;2023-05-10T14:45:41;4.60;;;2.03;;
75499;SDS011;64076;51.466;7.260;2023-05-10T14:48:06;10.38;;;2.20;;
75499;SDS011;64076;51.466;7.260;2023-05-10T14:50:36;9.80;;;2.00;;
75499;SDS011;64076;51.466;7.260;2023-05-10T14:53:01;6.10;;;2.20;;
75499;SDS011;64076;51.466;7.260;2023-05-10T14:55:27;13.07;;;2.33;;
75499;SDS011;64076;51.466;7.260;2023-05-10T14:57:52;12.55;;;2.28;;
75499;SDS011;64076;51.466;7.260;2023-05-10T15:00:18;4.33;;;1.80;;
75499;SDS011;64076;51.466;7.260;2023-05-10T15:02:44;3.35;;;2.17;;
75499;SDS011;64076;51.466;7.260;2023-05-10T15:05:09;5.13;;;2.20;;
75499;SDS011;64076;51.466;7.260;2023-05-10T15:07:35;3.50;;;2.17;;
75499;SDS011;64076;51.466;7.260;2023-05-10T15:10:01;3.70;;;1.90;;
75499;SDS011;64076;51.466;7.260;2023-05-10T15:12:27;2.67;;;2.20;;
75499;SDS011;64076;51.466;7.260;2023-05-10T15:14:52;3.43;;;2.03;;
75499;SDS011;64076;51.466;7.260;2023-05-10T15:17:18;2.83;;;2.10;;
75499;SDS011;64076;51.466;7.260;2023-05-10T15:19:43;3.20;;;1.92;;